Time;durP1;ratioP1;P1;durP2;ratioP2;P2;SDS_P1;SDS_P2;PMS_P1;PMS_P2;Temp;Humidity;BMP_temperature;BMP_pressure;BME280_temperature;BME280_humidity;BME280_pressure;Samples;Min_cycle;Max_cycle;Signal;HPM_P1;HPM_P2
2023/04/06 00:00:54;;;;;;;5.82;2.63;;;5.90;99.90;;;;;;5068709;28;20723;-36
2023/04/06 00:03:20;;;;;;;5.70;2.70;;;5.80;99.90;;;;;;5069462;28;20135;-38
2023/04/06 00:05:47;;;;;;;6.95;2.78;;;5.80;99.90;;;;;;5069175;28;20040;-36
2023/04/06 00:08:12;;;;;;;7.30;3.05;;;5.70;99.90;;;;;;5069460;28;20064;-36
2023/04/06 00:10:38;;;;;;;6.10;3.15;;;5.70;99.90;;;;;;5068913;28;20064;-37
2023/04/06 00:13:05;;;;;;;8.07;3.03;;;5.70;99.90;;;;;;5069268;28;20388;-37
2023/04/06 00:15:30;;;;;;;6.00;3.00;;;5.70;99.90;;;;;;5069752;28;20113;-36
2023/04/06 00:17:56;;;;;;;5.80;2.78;;;5.60;99.90;;;;;;5067901;28;20045;-36
2023/04/06 00:20:22;;;;;;;6.80;3.25;;;5.60;99.90;;;;;;5062527;28;20087;-37
2023/04/06 00:22:48;;;;;;;8.02;3.10;;;5.60;99.90;;;;;;5066749;28;20045;-37
2023/04/06 00:25:15;;;;;;;5.75;2.88;;;5.50;99.90;;;;;;5068665;28;20052;-37
2023/04/06 00:27:40;;;;;;;7.65;3.10;;;5.50;99.90;;;;;;5068379;28;20513;-37
2023/04/06 00:30:07;;;;;;;5.80;3.25;;;5.50;99.90;;;;;;5068699;28;20048;-37
2023/04/06 00:32:35;;;;;;;6.65;3.03;;;5.50;99.90;;;;;;5068597;28;20051;-36
2023/04/06 00:35:05;;;;;;;5.75;2.90;;;5.40;99.90;;;;;;5068294;28;20055;-36
2023/04/06 00:37:31;;;;;;;7.10;3.38;;;5.40;99.90;;;;;;5068411;28;20057;-38
2023/04/06 00:39:57;;;;;;;5.53;3.30;;;5.30;99.90;;;;;;5071120;28;21585;-37
2023/04/06 00:42:26;;;;;;;6.00;3.30;;;5.30;99.90;;;;;;5068773;28;20036;-37
2023/04/06 00:44:59;;;;;;;6.05;3.17;;;5.30;99.90;;;;;;5068143;28;20044;-39
2023/04/06 00:47:26;;;;;;;6.68;2.90;;;5.20;99.90;;;;;;5068625;28;20051;-53
2023/04/06 00:49:55;;;;;;;4.65;2.83;;;5.20;99.90;;;;;;5068151;28;20451;-44
2023/04/06 00:52:21;;;;;;;5.30;3.20;;;5.10;99.90;;;;;;5068649;28;20494;-36
2023/04/06 00:54:47;;;;;;;5.55;2.92;;;5.10;99.90;;;;;;5067834;28;20071;-37
2023/04/06 00:57:13;;;;;;;5.95;3.15;;;5.10;99.90;;;;;;5068477;28;20559;-38
2023/04/06 00:59:40;;;;;;;7.45;3.13;;;5.10;99.90;;;;;;5068412;28;20482;-38
2023/04/06 01:02:06;;;;;;;7.78;3.33;;;5.00;99.90;;;;;;5049899;28;20052;-36
2023/04/06 01:04:33;;;;;;;7.90;3.45;;;5.00;99.90;;;;;;5068309;28;20402;-38
2023/04/06 01:06:59;;;;;;;6.07;3.15;;;5.00;99.90;;;;;;5067300;28;20128;-37
2023/04/06 01:09:24;;;;;;;6.03;3.15;;;4.90;99.90;;;;;;5068476;28;20158;-37
2023/04/06 01:11:50;;;;;;;6.00;3.45;;;4.90;99.90;;;;;;5067671;28;20505;-37
2023/04/06 01:14:16;;;;;;;6.88;4.03;;;4.90;99.90;;;;;;5067617;28;20126;-36
2023/04/06 01:16:42;;;;;;;5.75;3.30;;;4.90;99.90;;;;;;5067591;28;20048;-36
2023/04/06 01:19:11;;;;;;;5.70;3.13;;;4.90;99.90;;;;;;5067393;28;20563;-36
2023/04/06 01:21:38;;;;;;;11.32;3.83;;;4.80;99.90;;;;;;5068015;28;20041;-36
2023/04/06 01:24:04;;;;;;;8.90;3.40;;;4.80;99.90;;;;;;5067515;28;20060;-37
2023/04/06 01:26:30;;;;;;;6.80;2.95;;;4.80;99.90;;;;;;5066258;28;20502;-39
2023/04/06 01:28:56;;;;;;;5.80;3.00;;;4.70;99.90;;;;;;5067062;28;20070;-36
2023/04/06 01:31:22;;;;;;;6.47;3.47;;;4.70;99.90;;;;;;5048345;28;20132;-36
2023/04/06 01:33:48;;;;;;;6.43;3.60;;;4.70;99.90;;;;;;5066882;28;20466;-37
2023/04/06 01:36:14;;;;;;;6.25;3.35;;;4.60;99.90;;;;;;5067860;28;20541;-37
2023/04/06 01:38:41;;;;;;;5.88;3.67;;;4.60;99.90;;;;;;5067098;28;20048;-37
2023/04/06 01:41:07;;;;;;;7.88;3.35;;;4.60;99.90;;;;;;5065329;28;20052;-40
2023/04/06 01:43:33;;;;;;;6.40;3.30;;;4.60;99.90;;;;;;5067486;28;20059;-36
2023/04/06 01:45:59;;;;;;;5.65;3.08;;;4.50;99.90;;;;;;5066814;28;20044;-37
2023/04/06 01:48:25;;;;;;;7.63;3.63;;;4.50;99.90;;;;;;5067982;28;20049;-37
2023/04/06 01:50:51;;;;;;;6.57;3.17;;;4.50;99.90;;;;;;5066967;28;20511;-37
2023/04/06 01:53:17;;;;;;;7.60;3.50;;;4.40;99.90;;;;;;5067616;28;20049;-37
2023/04/06 01:55:42;;;;;;;6.95;3.90;;;4.40;99.90;;;;;;5067090;28;20044;-37
2023/04/06 01:58:08;;;;;;;6.93;3.28;;;4.40;99.90;;;;;;5066906;28;20068;-37
2023/04/06 02:00:34;;;;;;;9.48;3.60;;;4.30;99.90;;;;;;5067414;28;20075;-39
2023/04/06 02:02:59;;;;;;;6.32;3.83;;;4.30;99.90;;;;;;5048526;28;20529;-37
2023/04/06 02:05:26;;;;;;;8.23;3.67;;;4.30;99.90;;;;;;5067273;28;20513;-37
2023/04/06 02:07:52;;;;;;;8.00;3.92;;;4.30;99.90;;;;;;5066586;28;20044;-38
2023/04/06 02:10:17;;;;;;;5.80;3.20;;;4.20;99.90;;;;;;5067105;28;20044;-38
2023/04/06 02:12:43;;;;;;;7.78;3.88;;;4.20;99.90;;;;;;5067192;28;20135;-37
2023/04/06 02:15:09;;;;;;;7.40;3.80;;;4.20;99.90;;;;;;5066338;28;20054;-37
2023/04/06 02:17:35;;;;;;;8.75;3.78;;;4.20;99.90;;;;;;5066721;28;20056;-37
2023/04/06 02:20:01;;;;;;;8.43;3.58;;;4.10;99.90;;;;;;5066414;28;20056;-37
2023/04/06 02:22:26;;;;;;;7.55;3.90;;;4.10;99.90;;;;;;5067162;28;20504;-37
2023/04/06 02:24:52;;;;;;;6.85;3.60;;;4.00;99.90;;;;;;5066050;28;20410;-37
2023/04/06 02:27:17;;;;;;;9.15;4.10;;;4.00;99.90;;;;;;5067089;28;20473;-37
2023/04/06 02:29:43;;;;;;;7.50;4.22;;;4.00;99.90;;;;;;5066876;28;20049;-37
2023/04/06 02:32:09;;;;;;;7.40;4.00;;;4.00;99.90;;;;;;5066758;28;20056;-37
2023/04/06 02:34:35;;;;;;;8.95;4.20;;;4.00;99.90;;;;;;5067392;28;20060;-38
2023/04/06 02:37:00;;;;;;;6.95;4.32;;;3.90;99.90;;;;;;5065413;28;20048;-39
2023/04/06 02:39:26;;;;;;;9.80;4.40;;;3.90;99.90;;;;;;5067274;28;20562;-37
2023/04/06 02:41:51;;;;;;;7.78;3.80;;;3.90;99.90;;;;;;5067178;28;20098;-37
2023/04/06 02:44:17;;;;;;;6.75;3.92;;;3.90;99.90;;;;;;5067725;28;20102;-37
2023/04/06 02:46:43;;;;;;;8.85;4.00;;;3.80;99.90;;;;;;5070617;28;20057;-37
2023/04/06 02:49:08;;;;;;;9.35;4.13;;;3.80;99.90;;;;;;5069869;28;20084;-37
2023/04/06 02:51:34;;;;;;;7.13;4.28;;;3.80;99.90;;;;;;5070634;28;20557;-38
2023/04/06 02:53:59;;;;;;;8.30;4.05;;;3.80;99.90;;;;;;5069823;28;20055;-37
2023/04/06 02:56:26;;;;;;;7.72;4.30;;;3.80;99.90;;;;;;5070640;28;20044;-37
2023/04/06 02:58:52;;;;;;;8.65;4.22;;;3.70;99.90;;;;;;5070906;28;20080;-38
2023/04/06 03:01:17;;;;;;;7.28;4.00;;;3.70;99.90;;;;;;5068912;28;20080;-37
2023/04/06 03:03:43;;;;;;;6.22;3.70;;;3.70;99.90;;;;;;5070335;28;20447;-37
2023/04/06 03:06:09;;;;;;;7.10;3.53;;;3.60;99.90;;;;;;5069607;28;20392;-38
2023/04/06 03:08:34;;;;;;;7.18;3.80;;;3.60;99.90;;;;;;5069227;28;20052;-37
2023/04/06 03:11:00;;;;;;;7.07;3.95;;;3.60;99.90;;;;;;5069711;28;20045;-38
2023/04/06 03:13:26;;;;;;;7.07;4.05;;;3.60;99.90;;;;;;5070183;28;20525;-37
2023/04/06 03:15:51;;;;;;;7.50;4.10;;;3.60;99.90;;;;;;5070490;28;20052;-37
2023/04/06 03:18:22;;;;;;;6.75;4.15;;;3.60;99.90;;;;;;5069038;28;20478;-37
2023/04/06 03:20:48;;;;;;;7.00;3.92;;;3.50;99.90;;;;;;5070419;28;20159;-38
2023/04/06 03:23:14;;;;;;;7.93;3.97;;;3.50;99.90;;;;;;5069411;28;20143;-37
2023/04/06 03:25:40;;;;;;;7.35;3.90;;;3.50;99.90;;;;;;5069703;28;20054;-37
2023/04/06 03:28:05;;;;;;;7.95;4.50;;;3.40;99.90;;;;;;5069702;28;20053;-37
2023/04/06 03:30:31;;;;;;;7.78;4.07;;;3.40;99.90;;;;;;5069976;28;20052;-37
2023/04/06 03:32:57;;;;;;;7.18;4.03;;;3.50;99.90;;;;;;5069957;28;20406;-37
2023/04/06 03:35:22;;;;;;;7.45;4.03;;;3.40;99.90;;;;;;5069420;28;20087;-38
2023/04/06 03:37:48;;;;;;;6.65;4.13;;;3.30;99.90;;;;;;5070008;28;20105;-37
2023/04/06 03:40:14;;;;;;;8.18;4.47;;;3.30;99.90;;;;;;5069095;28;20094;-36
2023/04/06 03:42:39;;;;;;;7.30;4.13;;;3.30;99.90;;;;;;5069816;28;20050;-36
2023/04/06 03:45:06;;;;;;;8.20;4.43;;;3.20;99.90;;;;;;5069179;28;20780;-36
2023/04/06 03:47:31;;;;;;;10.68;4.35;;;3.20;99.90;;;;;;5069470;28;20052;-42
2023/04/06 03:49:57;;;;;;;9.18;3.97;;;3.10;99.90;;;;;;5069327;28;20048;-38
2023/04/06 03:52:23;;;;;;;9.10;4.30;;;3.10;99.90;;;;;;5068805;28;20482;-37
2023/04/06 03:54:49;;;;;;;7.68;4.03;;;3.10;99.90;;;;;;5069697;28;20052;-42
2023/04/06 03:57:14;;;;;;;6.85;4.07;;;3.10;99.90;;;;;;5068867;28;20851;-36
2023/04/06 03:59:40;;;;;;;7.32;4.18;;;3.10;99.90;;;;;;5069168;28;20053;-36
2023/04/06 04:02:06;;;;;;;8.57;3.95;;;3.10;99.90;;;;;;5067926;28;20071;-37
2023/04/06 04:04:31;;;;;;;7.90;4.45;;;3.10;99.90;;;;;;5069691;28;20052;-37
2023/04/06 04:06:57;;;;;;;13.68;5.35;;;3.00;99.90;;;;;;5069430;28;20048;-37
2023/04/06 04:09:22;;;;;;;9.73;4.70;;;3.10;99.90;;;;;;5068704;28;20480;-36
2023/04/06 04:11:48;;;;;;;10.95;4.82;;;3.10;99.90;;;;;;5068077;28;20055;-36
2023/04/06 04:14:14;;;;;;;10.82;4.65;;;3.10;99.90;;;;;;5068146;28;20432;-37
2023/04/06 04:16:41;;;;;;;9.85;4.55;;;3.10;99.90;;;;;;5049589;28;20052;-37
2023/04/06 04:19:07;;;;;;;8.90;4.65;;;3.00;99.90;;;;;;5068566;28;20143;-37
2023/04/06 04:21:32;;;;;;;11.43;4.65;;;3.00;99.90;;;;;;5069033;28;20132;-37
2023/04/06 04:23:58;;;;;;;9.68;4.93;;;3.00;99.90;;;;;;5069238;28;20048;-44
2023/04/06 04:26:24;;;;;;;9.43;4.60;;;3.10;99.90;;;;;;5067955;28;20060;-37
2023/04/06 04:28:50;;;;;;;8.48;4.40;;;3.00;99.90;;;;;;5051185;28;20517;-44
2023/04/06 04:31:18;;;;;;;9.40;4.53;;;3.00;99.90;;;;;;5068239;28;20072;-37
2023/04/06 04:33:44;;;;;;;7.43;4.30;;;3.10;99.90;;;;;;5068138;28;20060;-37
2023/04/06 04:36:10;;;;;;;10.13;5.22;;;3.10;99.90;;;;;;5067999;28;20518;-37
2023/04/06 04:38:35;;;;;;;10.38;4.50;;;3.00;99.90;;;;;;5068185;28;20055;-37
2023/04/06 04:41:01;;;;;;;8.93;4.88;;;3.00;99.90;;;;;;5069357;28;20094;-37
2023/04/06 04:43:27;;;;;;;9.27;4.50;;;3.00;99.90;;;;;;5067833;28;20174;-36
2023/04/06 04:45:52;;;;;;;7.00;3.83;;;3.00;99.90;;;;;;5068435;28;20525;-37
2023/04/06 04:48:18;;;;;;;13.07;4.85;;;3.00;99.90;;;;;;5067060;28;20052;-37
2023/04/06 04:50:44;;;;;;;9.30;4.75;;;3.00;99.90;;;;;;5068474;28;20496;-37
2023/04/06 04:53:09;;;;;;;9.18;4.72;;;2.90;99.90;;;;;;5067138;28;20056;-37
2023/04/06 04:55:35;;;;;;;10.52;4.68;;;3.00;99.90;;;;;;5068272;28;20068;-38
2023/04/06 04:58:02;;;;;;;9.50;4.43;;;2.90;99.90;;;;;;5068074;28;20060;-37
2023/04/06 05:00:27;;;;;;;8.93;4.75;;;3.00;99.90;;;;;;5067116;28;20059;-52
2023/04/06 05:02:53;;;;;;;8.68;4.35;;;2.90;99.90;;;;;;5067533;28;20486;-42
2023/04/06 05:05:19;;;;;;;8.75;4.32;;;2.90;99.90;;;;;;5067453;28;20114;-37
2023/04/06 05:07:45;;;;;;;9.32;5.20;;;2.90;99.90;;;;;;5067271;28;20094;-38
2023/04/06 05:10:11;;;;;;;8.38;4.93;;;2.90;99.90;;;;;;5067328;28;20046;-36
2023/04/06 05:12:37;;;;;;;7.50;4.22;;;2.90;99.90;;;;;;5068323;28;20048;-37
2023/04/06 05:15:03;;;;;;;9.90;4.40;;;2.90;99.90;;;;;;5068297;28;20049;-37
2023/04/06 05:17:29;;;;;;;10.05;5.32;;;3.00;99.90;;;;;;5066601;28;20066;-37
2023/04/06 05:19:55;;;;;;;8.00;5.03;;;3.00;99.90;;;;;;5050710;28;20053;-37
2023/04/06 05:22:21;;;;;;;8.15;4.57;;;3.00;99.90;;;;;;5066464;28;20441;-37
2023/04/06 05:24:46;;;;;;;7.18;4.25;;;3.00;99.90;;;;;;5050027;28;20401;-37
2023/04/06 05:27:12;;;;;;;8.40;4.60;;;3.00;99.90;;;;;;5066561;28;20052;-37
2023/04/06 05:29:38;;;;;;;8.02;5.03;;;3.10;99.90;;;;;;5067484;28;20048;-37
2023/04/06 05:32:04;;;;;;;7.13;4.07;;;3.00;99.90;;;;;;5066843;28;20052;-37
2023/04/06 05:34:29;;;;;;;11.48;4.97;;;3.10;99.90;;;;;;5067038;28;20094;-36
2023/04/06 05:36:55;;;;;;;9.57;5.00;;;3.10;99.90;;;;;;5067735;28;20052;-37
2023/04/06 05:39:20;;;;;;;8.50;4.25;;;3.10;99.90;;;;;;5066691;28;20044;-36
2023/04/06 05:41:46;;;;;;;9.25;4.78;;;3.10;99.90;;;;;;5067590;28;20131;-37
2023/04/06 05:44:12;;;;;;;9.38;4.55;;;3.20;99.90;;;;;;5067586;28;20060;-37
2023/04/06 05:46:37;;;;;;;7.60;4.28;;;3.20;99.90;;;;;;5066376;28;20056;-37
2023/04/06 05:49:03;;;;;;;11.70;4.55;;;3.20;99.90;;;;;;5067275;28;20044;-37
2023/04/06 05:51:29;;;;;;;9.20;4.95;;;3.20;99.90;;;;;;5066588;28;20110;-36
2023/04/06 05:53:55;;;;;;;9.40;5.05;;;3.30;99.90;;;;;;5066110;28;20470;-37
2023/04/06 05:56:20;;;;;;;8.15;4.93;;;3.30;99.90;;;;;;5066860;28;20055;-37
2023/04/06 05:58:46;;;;;;;13.18;5.43;;;3.30;99.90;;;;;;5067336;28;20074;-36
2023/04/06 06:01:11;;;;;;;8.65;4.93;;;3.30;99.90;;;;;;5049258;28;20048;-37
2023/04/06 06:03:37;;;;;;;9.68;5.05;;;3.40;99.90;;;;;;5037907;28;23030;-37
2023/04/06 06:06:03;;;;;;;10.88;5.43;;;3.40;99.90;;;;;;5067402;28;20056;-37
2023/04/06 06:08:30;;;;;;;8.90;4.85;;;3.40;99.90;;;;;;5066453;28;20114;-37
2023/04/06 06:10:56;;;;;;;10.43;5.03;;;3.40;99.90;;;;;;5066001;28;20144;-39
2023/04/06 06:13:22;;;;;;;9.43;5.05;;;3.40;99.90;;;;;;5066792;28;20053;-38
2023/04/06 06:15:48;;;;;;;8.93;4.55;;;3.50;99.90;;;;;;5065923;28;20053;-37
2023/04/06 06:18:14;;;;;;;10.75;4.82;;;3.50;99.90;;;;;;5066671;28;20051;-46
2023/04/06 06:20:40;;;;;;;11.07;5.80;;;3.60;99.90;;;;;;5069694;28;20061;-43
2023/04/06 06:23:06;;;;;;;11.07;5.38;;;3.60;99.90;;;;;;5071168;28;20060;-48
2023/04/06 06:25:32;;;;;;;11.35;4.82;;;3.70;99.90;;;;;;5056280;28;20044;-45
2023/04/06 06:27:58;;;;;;;9.45;5.03;;;3.80;99.90;;;;;;5070989;28;20486;-44
2023/04/06 06:30:24;;;;;;;11.98;5.40;;;3.90;99.90;;;;;;5070585;28;20048;-45
2023/04/06 06:32:50;;;;;;;10.07;4.88;;;4.00;99.90;;;;;;5071242;28;20060;-42
2023/04/06 06:35:16;;;;;;;8.90;4.85;;;4.10;99.90;;;;;;5070674;28;20062;-44
2023/04/06 06:37:42;;;;;;;11.90;5.35;;;4.10;99.90;;;;;;5070317;28;20068;-45
2023/04/06 06:40:10;;;;;;;7.25;4.20;;;4.20;99.90;;;;;;5070695;28;20078;-43
2023/04/06 06:42:36;;;;;;;8.13;4.95;;;4.30;99.90;;;;;;5052151;28;20049;-43
2023/04/06 06:45:02;;;;;;;11.85;4.72;;;4.40;99.90;;;;;;5072423;28;20494;-46
2023/04/06 06:47:27;;;;;;;11.20;5.53;;;4.40;99.90;;;;;;5070171;28;20044;-45
2023/04/06 06:49:53;;;;;;;10.00;5.13;;;4.50;99.90;;;;;;5070764;28;20064;-43
2023/04/06 06:52:18;;;;;;;9.45;5.30;;;4.50;99.90;;;;;;5070861;28;20053;-42
2023/04/06 06:54:44;;;;;;;10.93;5.20;;;4.60;99.90;;;;;;5054745;28;20068;-43
2023/04/06 06:57:10;;;;;;;13.90;5.40;;;4.70;99.90;;;;;;5070132;28;20480;-43
2023/04/06 06:59:35;;;;;;;10.55;5.15;;;4.80;99.90;;;;;;5069776;28;20086;-39
2023/04/06 07:02:01;;;;;;;10.38;5.22;;;4.90;99.90;;;;;;5070460;28;20090;-42
2023/04/06 07:04:27;;;;;;;11.27;5.57;;;4.90;99.90;;;;;;5069958;28;20589;-43
2023/04/06 07:06:52;;;;;;;9.07;5.28;;;5.00;99.90;;;;;;5070308;28;20059;-44
2023/04/06 07:09:19;;;;;;;10.52;5.50;;;5.20;99.90;;;;;;5070360;28;20420;-42
2023/04/06 07:11:44;;;;;;;11.93;5.28;;;5.30;99.90;;;;;;5069840;28;20481;-42
2023/04/06 07:14:11;;;;;;;12.98;6.03;;;5.40;99.90;;;;;;5069774;28;20635;-56
2023/04/06 07:16:37;;;;;;;9.45;5.30;;;5.50;99.90;;;;;;5069477;28;20044;-44
2023/04/06 07:19:02;;;;;;;11.95;6.07;;;5.70;99.90;;;;;;5069910;28;20081;-43
2023/04/06 07:21:28;;;;;;;8.70;4.93;;;5.90;99.90;;;;;;5069534;28;20056;-44
2023/04/06 07:23:54;;;;;;;13.80;6.05;;;6.00;99.90;;;;;;5070106;28;20056;-45
2023/04/06 07:26:20;;;;;;;12.25;5.80;;;6.20;99.90;;;;;;5070222;28;20052;-43
2023/04/06 07:28:45;;;;;;;14.27;6.53;;;6.30;99.90;;;;;;5069635;28;20051;-45
2023/04/06 07:31:11;;;;;;;10.98;5.72;;;6.30;99.90;;;;;;5070110;28;20131;-45
2023/04/06 07:33:37;;;;;;;10.00;5.30;;;6.40;99.90;;;;;;5069312;28;20060;-44
2023/04/06 07:36:02;;;;;;;11.15;5.80;;;6.40;99.90;;;;;;5069951;28;20052;-43
2023/04/06 07:38:28;;;;;;;11.07;5.78;;;6.40;99.90;;;;;;5068897;28;20072;-41
2023/04/06 07:40:54;;;;;;;9.45;5.75;;;6.40;99.90;;;;;;5070511;28;20052;-43
2023/04/06 07:43:20;;;;;;;9.52;5.47;;;6.50;99.90;;;;;;5069659;28;20500;-46
2023/04/06 07:45:45;;;;;;;10.82;6.03;;;6.50;99.90;;;;;;5062868;28;20136;-48
2023/04/06 07:48:11;;;;;;;10.13;6.07;;;6.60;99.90;;;;;;5069735;28;20053;-44
2023/04/06 07:50:37;;;;;;;11.23;5.88;;;6.60;99.90;;;;;;5068619;28;20512;-45
2023/04/06 07:53:02;;;;;;;13.65;6.22;;;6.70;99.90;;;;;;5069812;28;20047;-42
2023/04/06 07:55:28;;;;;;;11.88;5.85;;;6.80;99.90;;;;;;5069661;28;20148;-43
2023/04/06 07:57:53;;;;;;;14.70;6.20;;;6.90;99.90;;;;;;5068554;28;20062;-44
2023/04/06 08:00:20;;;;;;;11.85;6.18;;;7.10;99.90;;;;;;5069124;28;20139;-42
2023/04/06 08:02:45;;;;;;;10.90;5.95;;;7.20;99.90;;;;;;5067931;28;20059;-44
2023/04/06 08:05:11;;;;;;;13.35;6.28;;;7.40;99.90;;;;;;5069195;28;20040;-46
2023/04/06 08:07:37;;;;;;;11.07;6.30;;;7.60;99.90;;;;;;5068600;28;20047;-43
2023/04/06 08:10:03;;;;;;;13.30;5.95;;;7.70;99.90;;;;;;5069263;28;20044;-42
2023/04/06 08:12:28;;;;;;;9.93;5.78;;;7.90;99.90;;;;;;5069958;28;20120;-37
2023/04/06 08:14:54;;;;;;;13.95;6.20;;;8.10;99.90;;;;;;5068681;28;20106;-38
2023/04/06 08:17:20;;;;;;;12.60;6.38;;;8.10;99.90;;;;;;5051235;28;20509;-37
2023/04/06 08:19:45;;;;;;;12.15;5.95;;;8.10;99.90;;;;;;5068488;28;20052;-38
2023/04/06 08:22:11;;;;;;;12.25;6.13;;;8.20;99.90;;;;;;5069021;28;20049;-37
2023/04/06 08:24:37;;;;;;;10.65;6.20;;;8.30;99.90;;;;;;5068147;28;20131;-36
2023/04/06 08:27:03;;;;;;;12.07;6.65;;;8.40;99.90;;;;;;5069100;28;20478;-53
2023/04/06 08:29:29;;;;;;;10.70;6.03;;;8.50;99.90;;;;;;5069032;28;20373;-35
2023/04/06 08:31:54;;;;;;;15.27;6.47;;;8.70;99.90;;;;;;5067904;28;20056;-36
2023/04/06 08:34:21;;;;;;;10.75;5.90;;;8.80;99.90;;;;;;5068635;28;20074;-37
2023/04/06 08:36:47;;;;;;;14.13;6.32;;;8.90;99.90;;;;;;5068192;28;20052;-36
2023/04/06 08:39:12;;;;;;;12.82;6.60;;;9.00;99.90;;;;;;5068389;28;20114;-36
2023/04/06 08:41:41;;;;;;;11.73;6.57;;;9.10;99.90;;;;;;5067846;28;20072;-36
2023/04/06 08:44:06;;;;;;;12.20;5.85;;;9.30;99.90;;;;;;5068176;28;20075;-36
2023/04/06 08:46:32;;;;;;;13.10;5.68;;;9.50;99.90;;;;;;5068835;28;20045;-36
2023/04/06 08:48:59;;;;;;;11.77;6.57;;;9.60;99.90;;;;;;5067792;28;20048;-37
2023/04/06 08:51:27;;;;;;;13.80;6.00;;;9.60;99.90;;;;;;5068741;28;20095;-36
2023/04/06 08:53:56;;;;;;;15.70;7.40;;;9.70;99.90;;;;;;5067919;28;20049;-39
2023/04/06 08:56:27;;;;;;;12.63;6.85;;;9.80;99.90;;;;;;5068595;28;20052;-40
2023/04/06 08:58:54;;;;;;;14.35;6.85;;;9.90;99.90;;;;;;5067530;28;20069;-40
2023/04/06 09:01:27;;;;;;;13.27;6.80;;;9.90;99.90;;;;;;5067832;28;20056;-40
2023/04/06 09:03:58;;;;;;;14.10;7.47;;;10.00;99.90;;;;;;5063133;28;20056;-41
2023/04/06 09:06:26;;;;;;;14.15;7.05;;;10.10;99.90;;;;;;5067126;28;20048;-41
2023/04/06 09:08:52;;;;;;;12.27;7.03;;;10.20;99.90;;;;;;5067762;28;20048;-49
2023/04/06 09:11:18;;;;;;;13.18;6.90;;;10.30;99.90;;;;;;5067718;28;20055;-39
2023/04/06 09:13:46;;;;;;;14.18;7.13;;;10.40;99.90;;;;;;5068050;28;20056;-38
2023/04/06 09:16:12;;;;;;;16.27;7.88;;;10.50;99.90;;;;;;5068201;28;20572;-42
2023/04/06 09:18:37;;;;;;;13.55;7.88;;;10.60;99.90;;;;;;5062448;28;20076;-40
2023/04/06 09:21:05;;;;;;;12.52;7.13;;;10.60;99.90;;;;;;5067065;28;20131;-35
2023/04/06 09:23:31;;;;;;;13.07;7.07;;;10.60;99.90;;;;;;5067923;28;20044;-36
2023/04/06 09:26:14;;;;;;;15.75;7.85;;;10.60;99.90;;;;;;5067245;28;20075;-37
2023/04/06 09:28:57;;;;;;;17.98;7.28;;;10.60;99.90;;;;;;5068031;28;20502;-36
2023/04/06 09:31:26;;;;;;;13.98;8.05;;;10.60;99.90;;;;;;5067178;28;20068;-37
2023/04/06 09:33:52;;;;;;;23.00;9.93;;;10.50;99.90;;;;;;5067836;28;20087;-35
2023/04/06 09:36:18;;;;;;;18.58;8.90;;;10.60;99.90;;;;;;5067074;28;20045;-35
2023/04/06 09:38:55;;;;;;;14.95;8.23;;;10.60;99.90;;;;;;5067579;28;20088;-36
2023/04/06 09:41:26;;;;;;;18.48;9.63;;;10.60;99.90;;;;;;5064063;28;20102;-36
2023/04/06 09:44:01;;;;;;;20.80;8.55;;;10.60;99.90;;;;;;5029104;28;20497;-42
2023/04/06 09:46:30;;;;;;;18.13;9.55;;;10.60;99.90;;;;;;5067372;28;20417;-38
2023/04/06 09:48:57;;;;;;;17.25;8.85;;;10.70;99.90;;;;;;5064819;28;20084;-36
2023/04/06 09:51:25;;;;;;;14.45;7.25;;;10.80;99.90;;;;;;5067156;28;20106;-37
2023/04/06 09:53:53;;;;;;;17.15;9.20;;;10.80;99.90;;;;;;5067172;28;20240;-35
2023/04/06 09:56:27;;;;;;;14.13;8.02;;;10.80;99.90;;;;;;5067062;28;20119;-35
2023/04/06 09:59:01;;;;;;;16.77;9.02;;;10.90;99.90;;;;;;5067050;28;20076;-35
2023/04/06 10:01:29;;;;;;;17.85;8.70;;;11.00;99.90;;;;;;5066355;28;20502;-36
2023/04/06 10:04:00;;;;;;;17.98;8.18;;;11.10;99.90;;;;;;5067563;28;20224;-35
2023/04/06 10:06:28;;;;;;;17.00;9.20;;;11.20;99.90;;;;;;5062336;28;20090;-35
2023/04/06 10:08:56;;;;;;;16.25;9.02;;;11.30;99.90;;;;;;5067573;28;20094;-35
2023/04/06 10:11:22;;;;;;;17.10;9.13;;;11.40;99.90;;;;;;5066448;28;20041;-35
2023/04/06 10:13:49;;;;;;;13.70;7.28;;;11.50;99.90;;;;;;5067025;28;20060;-36
2023/04/06 10:16:15;;;;;;;17.60;8.90;;;11.60;99.90;;;;;;5066309;28;20048;-36
2023/04/06 10:18:47;;;;;;;19.65;9.32;;;11.70;99.90;;;;;;5067278;28;20110;-36
2023/04/06 10:21:20;;;;;;;19.20;8.90;;;11.80;99.90;;;;;;5063124;28;20049;-35
2023/04/06 10:23:50;;;;;;;;;;;11.90;99.90;;;;;;5067568;28;20533;-35
2023/04/06 10:26:20;;;;;;;15.75;8.50;;;12.00;99.90;;;;;;5064894;28;19925;-36
2023/04/06 10:28:47;;;;;;;15.70;8.82;;;12.20;99.90;;;;;;5066640;28;20061;-36
2023/04/06 10:31:12;;;;;;;14.88;8.70;;;12.30;99.90;;;;;;5065819;28;20167;-37
2023/04/06 10:33:38;;;;;;;20.50;9.52;;;12.50;99.90;;;;;;5066667;28;20538;-42
2023/04/06 10:36:33;;;;;;;18.27;8.93;;;12.50;99.90;;;;;;5066414;28;20052;-42
2023/04/06 10:39:04;;;;;;;18.17;9.80;;;12.60;99.90;;;;;;5046092;28;20052;-41
2023/04/06 10:41:47;;;;;;;15.98;8.73;;;12.60;99.90;;;;;;5067009;28;20084;-42
2023/04/06 10:44:25;;;;;;;17.45;9.00;;;12.60;99.90;;;;;;5066009;28;20063;-40
2023/04/06 10:47:00;;;;;;;19.30;9.52;;;12.60;99.90;;;;;;5065942;28;20044;-41
2023/04/06 10:49:26;;;;;;;17.65;8.27;;;12.60;99.90;;;;;;5061698;28;20049;-46
2023/04/06 10:51:55;;;;;;;14.85;8.60;;;12.70;99.90;;;;;;5066318;28;20402;-40
2023/04/06 10:54:23;;;;;;;15.00;8.15;;;12.70;99.90;;;;;;5066624;28;20121;-40
2023/04/06 10:56:49;;;;;;;16.15;8.38;;;12.70;99.90;;;;;;5066989;28;20048;-39
2023/04/06 10:59:20;;;;;;;16.80;9.10;;;12.60;99.90;;;;;;5066068;28;20071;-42
2023/04/06 11:01:46;;;;;;;15.73;8.18;;;12.70;99.90;;;;;;5066276;28;20056;-40
2023/04/06 11:04:20;;;;;;;15.40;8.65;;;12.70;99.90;;;;;;5066278;28;20413;-40
2023/04/06 11:06:48;;;;;;;17.77;9.55;;;12.70;99.90;;;;;;5070273;28;20430;-40
2023/04/06 11:09:24;;;;;;;14.80;7.03;;;12.70;99.90;;;;;;5069245;28;20493;-40
2023/04/06 11:11:50;;;;;;;15.43;8.05;;;12.90;99.90;;;;;;5070513;28;20131;-40
2023/04/06 11:14:16;;;;;;;16.38;8.65;;;12.90;99.90;;;;;;5068088;28;20187;-40
2023/04/06 11:16:41;;;;;;;15.05;9.00;;;13.00;99.90;;;;;;5052076;28;20511;-41
2023/04/06 11:19:07;;;;;;;16.35;8.65;;;13.00;99.90;;;;;;5069801;28;20048;-41
2023/04/06 11:21:36;;;;;;;15.90;8.93;;;13.00;99.90;;;;;;5069752;28;20040;-42
2023/04/06 11:24:10;;;;;;;17.08;8.55;;;13.00;99.90;;;;;;5068686;28;20426;-48
2023/04/06 11:26:41;;;;;;;16.85;8.73;;;13.00;99.90;;;;;;5070333;28;20048;-42
2023/04/06 11:29:07;;;;;;;16.83;8.60;;;12.80;99.90;;;;;;5065478;28;20510;-41
2023/04/06 11:31:38;;;;;;;14.90;8.32;;;12.70;99.90;;;;;;5069688;28;20066;-42
2023/04/06 11:34:10;;;;;;;15.85;8.60;;;12.70;99.90;;;;;;5069488;28;20052;-42
2023/04/06 11:36:36;;;;;;;14.95;8.38;;;12.60;99.90;;;;;;5069964;28;20053;-42
2023/04/06 11:39:03;;;;;;;14.95;8.02;;;12.60;99.90;;;;;;5069191;28;20052;-42
2023/04/06 11:41:30;;;;;;;15.30;7.35;;;12.60;99.90;;;;;;5069597;28;20064;-44
2023/04/06 11:43:56;;;;;;;18.27;8.38;;;12.60;99.90;;;;;;5069343;28;20048;-37
2023/04/06 11:46:21;;;;;;;15.27;8.82;;;12.60;99.90;;;;;;5069622;28;20060;-35
2023/04/06 11:48:47;;;;;;;17.58;8.82;;;12.60;99.90;;;;;;5069706;28;20052;-36
2023/04/06 11:51:22;;;;;;;16.42;8.65;;;12.60;99.90;;;;;;5069166;28;20437;-37
2023/04/06 11:53:48;;;;;;;13.70;7.68;;;12.60;99.90;;;;;;5066937;28;20121;-41
2023/04/06 11:56:28;;;;;;;18.25;8.45;;;12.60;99.90;;;;;;5068868;28;20641;-39
2023/04/06 11:58:59;;;;;;;18.10;9.18;;;12.60;99.90;;;;;;5069089;28;20098;-37
2023/04/06 12:01:25;;;;;;;14.18;7.90;;;12.60;99.90;;;;;;5068331;28;20053;-36
2023/04/06 12:03:52;;;;;;;15.35;8.60;;;12.60;99.90;;;;;;5069713;28;20048;-37
2023/04/06 12:06:18;;;;;;;15.55;8.05;;;12.50;99.90;;;;;;5068831;28;20126;-35
2023/04/06 12:08:44;;;;;;;16.10;8.23;;;12.60;99.90;;;;;;5051139;28;20084;-36
2023/04/06 12:11:11;;;;;;;15.10;7.78;;;12.60;99.90;;;;;;5068251;28;20135;-37
2023/04/06 12:13:37;;;;;;;14.80;8.68;;;12.60;99.90;;;;;;5049814;28;20520;-36
2023/04/06 12:16:02;;;;;;;15.95;9.15;;;12.60;99.90;;;;;;5068266;28;20178;-44
2023/04/06 12:18:29;;;;;;;15.23;8.93;;;12.60;99.90;;;;;;5067902;28;20136;-36
2023/04/06 12:20:54;;;;;;;16.83;9.30;;;12.60;99.90;;;;;;5050629;28;20469;-37
2023/04/06 12:23:20;;;;;;;17.50;8.98;;;12.60;99.90;;;;;;5068106;28;20076;-35
2023/04/06 12:25:46;;;;;;;10.50;6.00;;;12.70;99.90;;;;;;5068052;28;20199;-36
2023/04/06 12:28:12;;;;;;;12.70;7.03;;;12.60;99.90;;;;;;5068535;28;20545;-36
2023/04/06 12:30:37;;;;;;;13.57;6.70;;;12.60;99.90;;;;;;5068373;28;20084;-36
2023/04/06 12:33:03;;;;;;;11.65;5.25;;;12.50;99.90;;;;;;5068884;28;20486;-35
2023/04/06 12:35:32;;;;;;;9.70;4.93;;;12.50;99.90;;;;;;5050701;28;20758;-36
2023/04/06 12:37:58;;;;;;;9.20;5.25;;;12.50;99.90;;;;;;5068399;28;20079;-35
2023/04/06 12:40:24;;;;;;;10.43;5.40;;;12.30;99.90;;;;;;5067803;28;20534;-36
2023/04/06 12:42:49;;;;;;;11.18;5.32;;;12.20;99.90;;;;;;5073246;28;20056;-36
2023/04/06 12:45:15;;;;;;;9.98;5.45;;;12.10;99.90;;;;;;5068768;28;20069;-36